Time;durP1;ratioP1;P1;durP2;ratioP2;P2;SDS_P1;SDS_P2;PMS_P1;PMS_P2;Temp;Humidity;BMP_temperature;BMP_pressure;BME280_temperature;BME280_humidity;BME280_pressure;Samples;Min_cycle;Max_cycle;Signal;HPM_P1;HPM_P2
2022/11/19 00:01:05;;;;;;;8.32;4.63;;;;;;;;;;5027154;28;20037;-83
2022/11/19 00:03:32;;;;;;;8.23;5.30;;;;;;;;;;5028808;28;20090;-82
2022/11/19 00:06:01;;;;;;;7.80;4.57;;;;;;;;;;5029131;28;20071;-82
2022/11/19 00:08:27;;;;;;;8.63;5.03;;;;;;;;;;5012115;28;20128;-82
2022/11/19 00:10:53;;;;;;;8.35;4.57;;;;;;;;;;5030341;28;20130;-82
2022/11/19 00:13:19;;;;;;;7.72;4.88;;;;;;;;;;5031057;28;20063;-82
2022/11/19 00:15:45;;;;;;;8.13;4.38;;;;;;;;;;5006777;28;20052;-83
2022/11/19 00:18:11;;;;;;;8.75;5.32;;;;;;;;;;5021870;28;20584;-84
2022/11/19 00:20:37;;;;;;;8.40;4.60;;;;;;;;;;5024156;28;20057;-82
2022/11/19 00:23:03;;;;;;;7.53;4.70;;;;;;;;;;5008480;28;20045;-83
2022/11/19 00:25:29;;;;;;;7.95;4.18;;;;;;;;;;5032508;28;20052;-83
2022/11/19 00:27:56;;;;;;;8.25;4.60;;;;;;;;;;5032354;28;20053;-82
2022/11/19 00:30:22;;;;;;;8.85;4.60;;;;;;;;;;5028788;28;20080;-83
2022/11/19 00:32:48;;;;;;;7.60;4.70;;;;;;;;;;5015903;28;20073;-83
2022/11/19 00:35:14;;;;;;;8.55;5.32;;;;;;;;;;5035344;28;20041;-83
2022/11/19 00:37:40;;;;;;;7.35;4.63;;;;;;;;;;5036664;28;20448;-82
2022/11/19 00:40:07;;;;;;;8.88;5.15;;;;;;;;;;5018736;28;20072;-83
2022/11/19 00:42:34;;;;;;;8.48;5.10;;;;;;;;;;5032148;28;20041;-82
2022/11/19 00:45:00;;;;;;;9.13;4.75;;;;;;;;;;5029058;28;20076;-83
2022/11/19 00:47:26;;;;;;;10.68;4.68;;;;;;;;;;5030175;28;20511;-82
2022/11/19 00:49:52;;;;;;;7.70;4.72;;;;;;;;;;5009457;28;20050;-82
2022/11/19 00:52:18;;;;;;;8.93;4.82;;;;;;;;;;5030775;28;20038;-83
2022/11/19 00:54:44;;;;;;;8.00;4.80;;;;;;;;;;5034581;28;20445;-82
2022/11/19 00:57:10;;;;;;;8.65;5.05;;;;;;;;;;5032384;28;20041;-82
2022/11/19 00:59:36;;;;;;;7.68;4.93;;;;;;;;;;5035359;28;20041;-83
2022/11/19 01:02:02;;;;;;;7.20;4.32;;;;;;;;;;5026592;28;20081;-82
2022/11/19 01:04:28;;;;;;;8.07;4.90;;;;;;;;;;5026682;28;20344;-82
2022/11/19 01:06:54;;;;;;;8.38;4.78;;;;;;;;;;5006431;28;20459;-82
2022/11/19 01:09:20;;;;;;;8.85;4.72;;;;;;;;;;5027114;28;20045;-83
2022/11/19 01:11:46;;;;;;;8.27;4.80;;;;;;;;;;5024827;28;20131;-83
2022/11/19 01:14:12;;;;;;;7.97;4.78;;;;;;;;;;5023415;28;20133;-82
2022/11/19 01:16:39;;;;;;;8.57;5.30;;;;;;;;;;5025838;28;20076;-82
2022/11/19 01:19:06;;;;;;;9.10;4.75;;;;;;;;;;5025331;28;20052;-83
2022/11/19 01:21:34;;;;;;;8.50;5.35;;;;;;;;;;5008476;28;20049;-83
2022/11/19 01:24:00;;;;;;;9.18;5.00;;;;;;;;;;5025521;28;20123;-82
2022/11/19 01:26:27;;;;;;;7.53;4.72;;;;;;;;;;5026715;28;20094;-82
2022/11/19 01:28:53;;;;;;;9.10;5.28;;;;;;;;;;5011421;28;20052;-82
2022/11/19 01:31:21;;;;;;;10.15;5.38;;;;;;;;;;5011897;28;20057;-83
2022/11/19 01:33:47;;;;;;;9.68;5.35;;;;;;;;;;5031305;28;20042;-82
2022/11/19 01:36:17;;;;;;;8.20;4.95;;;;;;;;;;5029075;28;20488;-83
2022/11/19 01:38:49;;;;;;;9.82;5.65;;;;;;;;;;5012521;28;20160;-82
2022/11/19 01:41:15;;;;;;;9.38;5.57;;;;;;;;;;5030512;28;20049;-83
2022/11/19 01:43:43;;;;;;;8.35;5.05;;;;;;;;;;5031504;28;20096;-82
2022/11/19 01:46:10;;;;;;;10.13;5.30;;;;;;;;;;5027726;28;20042;-82
2022/11/19 01:48:39;;;;;;;9.98;5.32;;;;;;;;;;5031178;28;20038;-82
2022/11/19 01:51:08;;;;;;;9.68;5.18;;;;;;;;;;5028544;28;20412;-83
2022/11/19 01:53:35;;;;;;;9.73;5.07;;;;;;;;;;5028396;28;20389;-84
2022/11/19 01:56:03;;;;;;;8.52;5.00;;;;;;;;;;5011644;28;20484;-83
2022/11/19 01:58:40;;;;;;;8.82;4.90;;;;;;;;;;5031229;28;20033;-83
2022/11/19 02:01:07;;;;;;;9.63;5.53;;;;;;;;;;5027028;28;20040;-83
2022/11/19 02:03:33;;;;;;;8.93;4.80;;;;;;;;;;5030105;28;20038;-83
2022/11/19 02:06:01;;;;;;;10.23;5.57;;;;;;;;;;5027642;28;20515;-82
2022/11/19 02:08:43;;;;;;;9.00;5.47;;;;;;;;;;5029877;28;20053;-83
2022/11/19 02:11:28;;;;;;;10.40;5.57;;;;;;;;;;5009377;28;20096;-83
2022/11/19 02:13:57;;;;;;;8.88;5.40;;;;;;;;;;5029225;28;20061;-84
2022/11/19 02:16:23;;;;;;;8.55;5.35;;;;;;;;;;5027778;28;20132;-83
2022/11/19 02:18:49;;;;;;;8.63;5.10;;;;;;;;;;5030621;28;20145;-83
2022/11/19 02:21:15;;;;;;;8.18;4.85;;;;;;;;;;5031449;28;20555;-84
2022/11/19 02:23:47;;;;;;;7.07;4.15;;;;;;;;;;5014008;28;20073;-84
2022/11/19 02:26:34;;;;;;;8.50;4.93;;;;;;;;;;5034690;28;20045;-83
2022/11/19 02:29:09;;;;;;;9.60;5.32;;;;;;;;;;5033230;28;20045;-84
2022/11/19 02:31:45;;;;;;;8.23;5.18;;;;;;;;;;5002763;28;20041;-83
2022/11/19 02:34:16;;;;;;;8.93;5.25;;;;;;;;;;5030726;28;20053;-83
2022/11/19 02:36:57;;;;;;;7.63;4.80;;;;;;;;;;5032710;28;20045;-83
2022/11/19 02:39:25;;;;;;;8.10;4.70;;;;;;;;;;5013462;28;20073;-83
2022/11/19 02:42:07;;;;;;;8.10;4.55;;;;;;;;;;5033196;28;20480;-83
2022/11/19 02:47:21;;;;;;;9.93;5.38;;;;;;;;;;5033472;28;19921;-83
2022/11/19 02:49:50;;;;;;;8.13;4.90;;;;;;;;;;5032511;28;20049;-83
2022/11/19 02:52:17;;;;;;;9.25;4.70;;;;;;;;;;5033331;28;20037;-84
2022/11/19 02:54:43;;;;;;;8.07;4.50;;;;;;;;;;5032033;28;20045;-83
2022/11/19 02:57:10;;;;;;;8.50;4.95;;;;;;;;;;5033238;28;20036;-84
2022/11/19 03:05:14;;;;;;;8.65;4.80;;;;;;;;;;5029284;28;20063;-83
2022/11/19 03:07:40;;;;;;;8.93;5.20;;;;;;;;;;5028396;28;20460;-83
2022/11/19 03:10:08;;;;;;;8.07;4.53;;;;;;;;;;5029045;28;20064;-84
2022/11/19 03:12:34;;;;;;;7.70;5.03;;;;;;;;;;5031692;28;20081;-83
2022/11/19 03:18:06;;;;;;;8.65;4.70;;;;;;;;;;5031966;28;20053;-84
2022/11/19 03:20:35;;;;;;;8.10;4.80;;;;;;;;;;5031126;28;20049;-84
2022/11/19 03:23:01;;;;;;;8.75;4.82;;;;;;;;;;5031479;28;20091;-83
2022/11/19 03:25:27;;;;;;;8.90;5.07;;;;;;;;;;5031445;28;20041;-83
2022/11/19 03:27:55;;;;;;;9.25;5.10;;;;;;;;;;5032319;28;20091;-82
2022/11/19 03:30:21;;;;;;;10.32;5.68;;;;;;;;;;5014744;28;20089;-83
2022/11/19 03:32:50;;;;;;;8.23;4.80;;;;;;;;;;5014998;28;20049;-83
2022/11/19 03:35:19;;;;;;;8.07;4.95;;;;;;;;;;5031418;28;20073;-83
2022/11/19 03:37:46;;;;;;;9.60;5.32;;;;;;;;;;5032258;28;20068;-83
2022/11/19 03:40:14;;;;;;;7.43;4.55;;;;;;;;;;5030621;28;20045;-83
2022/11/19 03:42:41;;;;;;;8.65;5.00;;;;;;;;;;5033165;28;20385;-83
2022/11/19 03:45:13;;;;;;;8.93;4.80;;;;;;;;;;5027619;28;20037;-83
2022/11/19 03:47:40;;;;;;;8.25;4.97;;;;;;;;;;5009015;28;20046;-83
2022/11/19 03:50:14;;;;;;;8.77;5.10;;;;;;;;;;5030738;28;20447;-83
2022/11/19 03:52:42;;;;;;;8.73;4.95;;;;;;;;;;5031099;28;20570;-83
2022/11/19 03:55:08;;;;;;;8.77;4.82;;;;;;;;;;4996866;28;20041;-84
2022/11/19 03:57:34;;;;;;;8.65;4.75;;;;;;;;;;5032566;28;20100;-83
2022/11/19 04:00:00;;;;;;;11.07;5.28;;;;;;;;;;5026844;28;20077;-82
2022/11/19 04:02:26;;;;;;;9.35;4.88;;;;;;;;;;5031355;28;20064;-83
2022/11/19 04:04:52;;;;;;;15.20;5.95;;;;;;;;;;5028924;28;20049;-83
2022/11/19 04:07:19;;;;;;;10.15;5.10;;;;;;;;;;5013835;28;20053;-82
2022/11/19 04:09:45;;;;;;;8.15;4.75;;;;;;;;;;5030997;28;20041;-83
2022/11/19 04:12:16;;;;;;;8.00;5.15;;;;;;;;;;5033121;28;20409;-83
2022/11/19 04:14:42;;;;;;;9.35;4.93;;;;;;;;;;5015780;28;20045;-83
2022/11/19 04:17:08;;;;;;;9.25;4.95;;;;;;;;;;5033787;28;20046;-83
2022/11/19 04:19:34;;;;;;;8.18;4.70;;;;;;;;;;5016410;28;20049;-83
2022/11/19 04:22:00;;;;;;;7.95;4.85;;;;;;;;;;5035243;28;20441;-83
2022/11/19 04:24:26;;;;;;;9.38;5.00;;;;;;;;;;5035646;28;20037;-83
2022/11/19 04:26:52;;;;;;;9.48;4.90;;;;;;;;;;5033574;28;20574;-83
2022/11/19 04:29:18;;;;;;;8.68;4.55;;;;;;;;;;5034745;28;20045;-83
2022/11/19 04:31:44;;;;;;;8.25;4.90;;;;;;;;;;5035612;28;20103;-83
2022/11/19 04:34:10;;;;;;;8.68;4.93;;;;;;;;;;5033651;28;20404;-83
2022/11/19 04:36:36;;;;;;;9.18;5.18;;;;;;;;;;5017656;28;20049;-83
2022/11/19 04:39:02;;;;;;;8.90;5.13;;;;;;;;;;5034248;28;20048;-83
2022/11/19 04:41:28;;;;;;;8.23;4.68;;;;;;;;;;5018961;28;20045;-83
2022/11/19 04:43:54;;;;;;;7.85;5.00;;;;;;;;;;5033514;28;20049;-83
2022/11/19 04:46:20;;;;;;;7.82;4.60;;;;;;;;;;5033625;28;20045;-83
2022/11/19 04:48:46;;;;;;;9.57;5.13;;;;;;;;;;5032533;28;20038;-83
2022/11/19 04:51:12;;;;;;;9.15;4.82;;;;;;;;;;5034838;28;20659;-83
2022/11/19 04:53:38;;;;;;;12.32;5.75;;;;;;;;;;5033446;28;20034;-82
2022/11/19 04:56:04;;;;;;;8.18;5.03;;;;;;;;;;5032912;28;20044;-83
2022/11/19 04:58:30;;;;;;;8.63;5.10;;;;;;;;;;5033295;28;20056;-83
2022/11/19 05:00:56;;;;;;;8.32;5.20;;;;;;;;;;5033604;28;20048;-82
2022/11/19 05:03:22;;;;;;;8.98;5.30;;;;;;;;;;5033198;28;20095;-83
2022/11/19 05:05:49;;;;;;;8.48;5.50;;;;;;;;;;5028800;28;20053;-82
2022/11/19 05:08:15;;;;;;;9.07;6.00;;;;;;;;;;5031192;28;20056;-82
2022/11/19 05:10:41;;;;;;;9.50;5.57;;;;;;;;;;5033718;28;20038;-83
2022/11/19 05:13:07;;;;;;;9.27;6.00;;;;;;;;;;5013242;28;20045;-83
2022/11/19 05:15:33;;;;;;;9.65;5.80;;;;;;;;;;5031751;28;20047;-83
2022/11/19 05:17:59;;;;;;;10.13;6.82;;;;;;;;;;5034132;28;20053;-83
2022/11/19 05:20:25;;;;;;;10.10;6.13;;;;;;;;;;5015698;28;20049;-83
2022/11/19 05:22:51;;;;;;;9.90;6.22;;;;;;;;;;5034062;28;20037;-83
2022/11/19 05:25:17;;;;;;;21.67;11.13;;;;;;;;;;5025828;28;20042;-83
2022/11/19 05:27:43;;;;;;;11.70;7.32;;;;;;;;;;5033611;28;20042;-83
2022/11/19 05:30:09;;;;;;;10.52;6.78;;;;;;;;;;5033228;28;20045;-83
2022/11/19 05:32:35;;;;;;;9.98;6.70;;;;;;;;;;5034731;28;20037;-83
2022/11/19 05:35:02;;;;;;;10.77;6.93;;;;;;;;;;5033330;28;20045;-82
2022/11/19 05:37:28;;;;;;;9.75;6.80;;;;;;;;;;5016552;28;20053;-83
2022/11/19 05:39:54;;;;;;;10.57;7.15;;;;;;;;;;5032420;28;20046;-83
2022/11/19 05:42:20;;;;;;;9.90;6.50;;;;;;;;;;5016523;28;20104;-83
2022/11/19 05:44:46;;;;;;;10.35;7.05;;;;;;;;;;5017183;28;20045;-83
2022/11/19 05:47:12;;;;;;;11.30;7.57;;;;;;;;;;5022616;28;20141;-83
2022/11/19 05:49:38;;;;;;;10.40;7.10;;;;;;;;;;5027769;28;20107;-83
2022/11/19 05:52:04;;;;;;;10.90;7.97;;;;;;;;;;5015359;28;20048;-83
2022/11/19 05:54:30;;;;;;;10.32;6.90;;;;;;;;;;5033986;28;20048;-83
2022/11/19 05:56:56;;;;;;;13.32;7.50;;;;;;;;;;5015854;28;20054;-83
2022/11/19 05:59:22;;;;;;;12.25;8.35;;;;;;;;;;5032203;28;20042;-83
2022/11/19 06:01:48;;;;;;;11.82;7.13;;;;;;;;;;5012753;28;20050;-84
2022/11/19 06:04:14;;;;;;;11.73;7.88;;;;;;;;;;5015026;28;20045;-83
2022/11/19 06:06:40;;;;;;;12.23;7.53;;;;;;;;;;5014768;28;20041;-83
2022/11/19 06:09:06;;;;;;;11.07;7.70;;;;;;;;;;5034526;28;20045;-83
2022/11/19 06:11:48;;;;;;;11.00;7.00;;;;;;;;;;5036746;28;20037;-82
2022/11/19 06:14:15;;;;;;;11.45;7.88;;;;;;;;;;5007160;28;20049;-83
2022/11/19 06:16:42;;;;;;;11.88;8.10;;;;;;;;;;5025208;28;20665;-83
2022/11/19 06:19:08;;;;;;;11.63;7.82;;;;;;;;;;5030799;28;20046;-83
2022/11/19 06:21:34;;;;;;;14.77;9.23;;;;;;;;;;5031633;28;20042;-83
2022/11/19 06:24:00;;;;;;;12.27;8.15;;;;;;;;;;5033490;28;20519;-83
2022/11/19 06:26:27;;;;;;;14.63;9.38;;;;;;;;;;5033846;28;20563;-83
2022/11/19 06:28:53;;;;;;;11.23;7.95;;;;;;;;;;5032586;28;20049;-83
2022/11/19 06:31:20;;;;;;;12.85;8.25;;;;;;;;;;5018936;28;20045;-82
2022/11/19 06:33:46;;;;;;;18.75;9.90;;;;;;;;;;5033065;28;20049;-82
2022/11/19 06:36:12;;;;;;;15.02;8.27;;;;;;;;;;5033948;28;20049;-83
2022/11/19 06:38:38;;;;;;;17.58;10.25;;;;;;;;;;5032821;28;20104;-82
2022/11/19 06:41:04;;;;;;;15.40;10.50;;;;;;;;;;5010483;28;20103;-82
2022/11/19 06:43:30;;;;;;;13.95;9.23;;;;;;;;;;4995729;28;20046;-83
2022/11/19 06:45:56;;;;;;;16.13;10.43;;;;;;;;;;5033694;28;20391;-83
2022/11/19 06:48:22;;;;;;;17.05;10.65;;;;;;;;;;5032746;28;20054;-82
2022/11/19 06:50:48;;;;;;;16.45;10.15;;;;;;;;;;5012384;28;20409;-83
2022/11/19 06:53:15;;;;;;;15.85;10.30;;;;;;;;;;5011743;28;20054;-83
2022/11/19 06:55:41;;;;;;;12.82;9.32;;;;;;;;;;5031588;28;20049;-83
2022/11/19 06:58:07;;;;;;;15.02;9.63;;;;;;;;;;5031075;28;20042;-83
2022/11/19 07:00:33;;;;;;;13.73;8.13;;;;;;;;;;5013886;28;20133;-83
2022/11/19 07:02:59;;;;;;;16.25;9.85;;;;;;;;;;5028067;28;20385;-83
2022/11/19 07:05:25;;;;;;;19.40;10.48;;;;;;;;;;5027347;28;20124;-83
2022/11/19 07:07:51;;;;;;;15.18;9.63;;;;;;;;;;5030812;28;20053;-83
2022/11/19 07:10:17;;;;;;;20.70;11.43;;;;;;;;;;5029962;28;20132;-83
2022/11/19 07:12:43;;;;;;;19.05;10.68;;;;;;;;;;5020998;28;20037;-82
2022/11/19 07:15:09;;;;;;;21.98;11.80;;;;;;;;;;5011355;28;20044;-83
2022/11/19 07:17:36;;;;;;;17.10;10.30;;;;;;;;;;5029833;28;20171;-83
2022/11/19 07:20:03;;;;;;;18.55;11.15;;;;;;;;;;5031712;28;20053;-83
2022/11/19 07:22:29;;;;;;;21.83;11.88;;;;;;;;;;5031551;28;20385;-82
2022/11/19 07:24:55;;;;;;;25.90;15.10;;;;;;;;;;5028913;28;20056;-83
2022/11/19 07:27:21;;;;;;;15.18;9.98;;;;;;;;;;5027449;28;20041;-83
2022/11/19 07:29:47;;;;;;;22.25;11.45;;;;;;;;;;5029544;28;20073;-82
2022/11/19 07:32:13;;;;;;;16.13;10.18;;;;;;;;;;5029442;28;20056;-82
2022/11/19 07:34:39;;;;;;;14.70;9.80;;;;;;;;;;5031041;28;20167;-82
2022/11/19 07:37:05;;;;;;;18.75;11.27;;;;;;;;;;5025682;28;20037;-82
2022/11/19 07:39:31;;;;;;;16.70;11.07;;;;;;;;;;5026630;28;20056;-83
2022/11/19 07:44:41;;;;;;;15.25;10.90;;;;;;;;;;5020473;28;20434;-83
2022/11/19 07:47:07;;;;;;;18.60;10.75;;;;;;;;;;5030809;28;20087;-82
2022/11/19 07:49:33;;;;;;;13.00;9.27;;;;;;;;;;5030868;28;20042;-83
2022/11/19 07:51:59;;;;;;;16.52;10.65;;;;;;;;;;5015073;28;20048;-82
2022/11/19 07:54:25;;;;;;;13.95;9.80;;;;;;;;;;5031606;28;20353;-82
2022/11/19 07:56:51;;;;;;;15.57;10.82;;;;;;;;;;5030725;28;20048;-82
2022/11/19 07:59:18;;;;;;;13.05;9.60;;;;;;;;;;5029518;28;20048;-82
2022/11/19 08:01:43;;;;;;;12.68;8.98;;;;;;;;;;5011218;28;20381;-82
2022/11/19 08:04:10;;;;;;;12.60;9.05;;;;;;;;;;5033026;28;20053;-82
2022/11/19 08:06:37;;;;;;;13.30;9.48;;;;;;;;;;5013436;28;20052;-82
2022/11/19 08:09:04;;;;;;;13.50;9.60;;;;;;;;;;5026321;28;20076;-84
2022/11/19 08:11:30;;;;;;;14.27;9.63;;;;;;;;;;5023539;28;20053;-83
2022/11/19 08:13:57;;;;;;;13.55;10.15;;;;;;;;;;5031742;28;20037;-83
2022/11/19 08:19:10;;;;;;;13.25;9.10;;;;;;;;;;5007506;28;20049;-83
2022/11/19 08:21:39;;;;;;;14.75;10.15;;;;;;;;;;5031655;28;20481;-83
2022/11/19 08:24:05;;;;;;;13.82;10.00;;;;;;;;;;5031324;28;20048;-83
2022/11/19 08:26:31;;;;;;;16.73;10.32;;;;;;;;;;5031037;28;20041;-83
2022/11/19 08:28:57;;;;;;;14.13;9.55;;;;;;;;;;5032001;28;20088;-83
2022/11/19 08:31:23;;;;;;;16.75;11.55;;;;;;;;;;5034439;28;20045;-82
2022/11/19 08:33:49;;;;;;;17.73;10.48;;;;;;;;;;5035241;28;20443;-82
2022/11/19 08:36:15;;;;;;;13.85;9.88;;;;;;;;;;5030960;28;20038;-83
2022/11/19 08:38:41;;;;;;;14.40;10.35;;;;;;;;;;5032170;28;20041;-83
2022/11/19 08:43:53;;;;;;;15.77;10.55;;;;;;;;;;5029813;28;20053;-82
2022/11/19 08:46:19;;;;;;;15.60;9.93;;;;;;;;;;5030140;28;20041;-83
2022/11/19 08:48:45;;;;;;;16.38;11.05;;;;;;;;;;5031234;28;20095;-82
2022/11/19 08:51:15;;;;;;;16.00;9.93;;;;;;;;;;5013895;28;20046;-82
2022/11/19 08:53:41;;;;;;;12.13;8.15;;;;;;;;;;5028986;28;20045;-82
2022/11/19 08:56:07;;;;;;;17.27;11.27;;;;;;;;;;5033129;28;20103;-82
2022/11/19 08:58:34;;;;;;;13.38;9.50;;;;;;;;;;5034071;28;20041;-81
2022/11/19 09:01:07;;;;;;;15.48;9.70;;;;;;;;;;5035359;28;20042;-82
2022/11/19 09:03:33;;;;;;;13.23;9.30;;;;;;;;;;5031760;28;20445;-82
2022/11/19 09:05:59;;;;;;;16.77;11.75;;;;;;;;;;4999836;28;20485;-82
2022/11/19 09:08:25;;;;;;;14.30;9.10;;;;;;;;;;5033577;28;20080;-82
2022/11/19 09:10:51;;;;;;;13.93;9.45;;;;;;;;;;5013995;28;20049;-82
2022/11/19 09:13:17;;;;;;;15.50;9.98;;;;;;;;;;5032839;28;20046;-82
2022/11/19 09:15:43;;;;;;;14.65;9.82;;;;;;;;;;5033531;28;20095;-82
2022/11/19 09:18:09;;;;;;;13.35;9.23;;;;;;;;;;5032940;28;20080;-82
2022/11/19 09:20:36;;;;;;;14.60;10.30;;;;;;;;;;5035561;28;20468;-82
2022/11/19 09:23:02;;;;;;;15.50;9.57;;;;;;;;;;5034247;28;20042;-82
2022/11/19 09:25:28;;;;;;;13.85;9.52;;;;;;;;;;5036422;28;20091;-82
2022/11/19 09:27:54;;;;;;;12.98;9.30;;;;;;;;;;5034418;28;20057;-82
2022/11/19 09:30:20;;;;;;;12.35;8.80;;;;;;;;;;5035445;28;20045;-82
2022/11/19 09:32:46;;;;;;;15.50;9.05;;;;;;;;;;5033439;28;20084;-81
2022/11/19 09:35:13;;;;;;;14.90;8.95;;;;;;;;;;5035103;28;20045;-82
2022/11/19 09:37:39;;;;;;;14.52;9.02;;;;;;;;;;5035142;28;20374;-82
2022/11/19 09:40:07;;;;;;;16.33;9.70;;;;;;;;;;5033046;28;20443;-82
2022/11/19 09:43:08;;;;;;;13.55;9.93;;;;;;;;;;5015991;28;20096;-83
2022/11/19 09:45:53;;;;;;;13.68;9.45;;;;;;;;;;4970687;28;20039;-82
2022/11/19 09:48:19;;;;;;;13.90;9.60;;;;;;;;;;4973426;28;20125;-81
2022/11/19 09:50:48;;;;;;;14.20;9.65;;;;;;;;;;4965744;28;20486;-81
2022/11/19 09:53:16;;;;;;;11.93;9.07;;;;;;;;;;4971435;28;20074;-82
2022/11/19 09:55:44;;;;;;;11.40;7.97;;;;;;;;;;4969777;28;20057;-82
2022/11/19 09:58:16;;;;;;;13.52;9.23;;;;;;;;;;4971212;28;20049;-80
2022/11/19 10:00:43;;;;;;;11.60;8.43;;;;;;;;;;4970351;28;20110;-82
2022/11/19 10:03:14;;;;;;;12.88;8.82;;;;;;;;;;4972672;28;20121;-83
2022/11/19 10:05:52;;;;;;;14.48;8.80;;;;;;;;;;4940566;28;20422;-82
2022/11/19 10:08:18;;;;;;;14.15;9.65;;;;;;;;;;4971039;28;20047;-82
2022/11/19 10:10:50;;;;;;;12.95;8.45;;;;;;;;;;4956344;28;20533;-82
2022/11/19 10:13:28;;;;;;;11.98;8.35;;;;;;;;;;4972899;28;20061;-83
2022/11/19 10:16:02;;;;;;;12.30;8.95;;;;;;;;;;4971328;28;20047;-82
2022/11/19 10:18:37;;;;;;;10.38;7.60;;;;;;;;;;4975963;28;20114;-82
2022/11/19 10:21:24;;;;;;;14.07;8.75;;;;;;;;;;5031165;28;20106;-83
2022/11/19 10:24:09;;;;;;;12.00;8.50;;;;;;;;;;4997029;28;20045;-83
2022/11/19 10:26:37;;;;;;;10.55;7.60;;;;;;;;;;5032360;28;20049;-82
2022/11/19 10:29:09;;;;;;;13.82;8.82;;;;;;;;;;5032671;28;20413;-82
2022/11/19 10:31:43;;;;;;;13.75;8.80;;;;;;;;;;5032880;28;20045;-82
2022/11/19 10:34:15;;;;;;;15.57;9.60;;;;;;;;;;5032316;28;20049;-83
2022/11/19 10:36:42;;;;;;;12.43;8.25;;;;;;;;;;5033531;28;20508;-83
2022/11/19 10:39:18;;;;;;;11.48;8.30;;;;;;;;;;5014921;28;20041;-83
2022/11/19 10:42:00;;;;;;;13.10;8.45;;;;;;;;;;5014507;28;20117;-82
2022/11/19 10:44:41;;;;;;;12.07;8.07;;;;;;;;;;5032885;28;20045;-83
2022/11/19 10:47:07;;;;;;;14.90;9.45;;;;;;;;;;5031709;28;20081;-82
2022/11/19 10:49:37;;;;;;;12.30;8.07;;;;;;;;;;5024643;28;20056;-82
2022/11/19 10:52:03;;;;;;;21.63;14.18;;;;;;;;;;5026056;28;20166;-82
2022/11/19 10:54:30;;;;;;;13.63;8.43;;;;;;;;;;5015327;28;20099;-82
2022/11/19 10:56:56;;;;;;;12.48;8.32;;;;;;;;;;5031787;28;20045;-82
2022/11/19 10:59:23;;;;;;;26.83;20.95;;;;;;;;;;5031254;28;20076;-82
2022/11/19 11:01:59;;;;;;;10.98;7.85;;;;;;;;;;5014680;28;20107;-83
2022/11/19 11:04:27;;;;;;;11.35;8.15;;;;;;;;;;5033248;28;20095;-82
2022/11/19 11:07:00;;;;;;;10.43;7.30;;;;;;;;;;5033444;28;20053;-83
2022/11/19 11:09:31;;;;;;;10.98;7.60;;;;;;;;;;5032329;28;20400;-82
2022/11/19 11:14:58;;;;;;;11.23;6.45;;;;;;;;;;5025929;28;20509;-82
2022/11/19 11:17:25;;;;;;;11.55;7.47;;;;;;;;;;5032400;28;20046;-82
2022/11/19 11:19:59;;;;;;;24.00;16.40;;;;;;;;;;5011121;28;20053;-82
2022/11/19 11:22:25;;;;;;;10.35;6.60;;;;;;;;;;5029364;28;20610;-82
2022/11/19 11:24:51;;;;;;;10.45;7.18;;;;;;;;;;5032547;28;20049;-83
2022/11/19 11:27:18;;;;;;;10.65;6.88;;;;;;;;;;5027584;28;20504;-83
2022/11/19 11:29:44;;;;;;;10.10;6.30;;;;;;;;;;4987809;28;20135;-82
2022/11/19 11:32:27;;;;;;;10.15;6.60;;;;;;;;;;5030038;28;20072;-83
2022/11/19 11:34:53;;;;;;;9.50;6.10;;;;;;;;;;5032285;28;20053;-82
2022/11/19 11:37:19;;;;;;;10.25;7.00;;;;;;;;;;5029479;28;20432;-82
2022/11/19 11:39:48;;;;;;;23.35;16.13;;;;;;;;;;5010269;28;20507;-83
2022/11/19 11:42:18;;;;;;;9.95;6.85;;;;;;;;;;5015274;28;20119;-82
2022/11/19 11:44:50;;;;;;;10.13;7.22;;;;;;;;;;5012822;28;20041;-82
2022/11/19 11:47:17;;;;;;;11.38;7.78;;;;;;;;;;5032346;28;20080;-83
2022/11/19 11:49:45;;;;;;;11.70;7.22;;;;;;;;;;5018654;28;20064;-83
2022/11/19 11:52:11;;;;;;;10.77;8.02;;;;;;;;;;5032119;28;20405;-82
2022/11/19 11:54:37;;;;;;;11.95;7.60;;;;;;;;;;5033386;28;20041;-82
2022/11/19 11:57:23;;;;;;;9.02;6.32;;;;;;;;;;5033173;28;20037;-82
2022/11/19 11:59:49;;;;;;;23.48;11.95;;;;;;;;;;5019316;28;20045;-82
2022/11/19 12:02:25;;;;;;;13.68;6.95;;;;;;;;;;5012833;28;20049;-81
2022/11/19 12:04:52;;;;;;;9.70;6.15;;;;;;;;;;5030974;28;20041;-83
2022/11/19 12:07:26;;;;;;;9.23;6.03;;;;;;;;;;5028151;28;20505;-82
2022/11/19 12:09:55;;;;;;;12.65;7.15;;;;;;;;;;5030049;28;20037;-82
2022/11/19 12:12:26;;;;;;;8.70;5.72;;;;;;;;;;5009510;28;20484;-82
2022/11/19 12:14:58;;;;;;;14.63;8.98;;;;;;;;;;5015769;28;20053;-82
2022/11/19 12:17:30;;;;;;;10.52;6.47;;;;;;;;;;5032597;28;20096;-82
2022/11/19 12:20:06;;;;;;;10.20;5.82;;;;;;;;;;5031771;28;20543;-82
2022/11/19 12:22:50;;;;;;;13.15;6.63;;;;;;;;;;5014583;28;20050;-82
2022/11/19 12:25:29;;;;;;;16.10;9.48;;;;;;;;;;5031878;28;20048;-82
2022/11/19 12:28:14;;;;;;;10.10;5.65;;;;;;;;;;5028320;28;20038;-82
2022/11/19 12:30:59;;;;;;;8.95;6.07;;;;;;;;;;5029001;28;20053;-82
2022/11/19 12:33:32;;;;;;;9.07;5.88;;;;;;;;;;5037109;28;20057;-82
2022/11/19 12:36:13;;;;;;;8.93;5.85;;;;;;;;;;5034863;28;20045;-82
2022/11/19 12:38:50;;;;;;;8.70;6.05;;;;;;;;;;5018887;28;20053;-83
2022/11/19 12:41:28;;;;;;;9.07;5.90;;;;;;;;;;5036277;28;20046;-82
2022/11/19 12:43:59;;;;;;;16.95;11.45;;;;;;;;;;5034659;28;20412;-83
2022/11/19 12:46:33;;;;;;;11.38;8.10;;;;;;;;;;5018574;28;20140;-83
2022/11/19 12:49:17;;;;;;;9.05;5.47;;;;;;;;;;5019443;28;20064;-82
2022/11/19 12:52:01;;;;;;;8.20;4.97;;;;;;;;;;5018870;28;20057;-82
2022/11/19 12:54:34;;;;;;;7.72;5.07;;;;;;;;;;5017329;28;20049;-81
2022/11/19 12:57:28;;;;;;;8.50;5.22;;;;;;;;;;5016708;28;20387;-82
2022/11/19 13:00:12;;;;;;;9.82;4.93;;;;;;;;;;5016944;28;20132;-82
2022/11/19 13:02:46;;;;;;;10.98;5.85;;;;;;;;;;5036240;28;20050;-83
2022/11/19 13:05:15;;;;;;;8.75;5.45;;;;;;;;;;5034525;28;20046;-83
2022/11/19 13:07:46;;;;;;;8.15;5.18;;;;;;;;;;5035677;28;20452;-83
2022/11/19 13:10:18;;;;;;;8.43;4.70;;;;;;;;;;5033601;28;20045;-82
2022/11/19 13:12:48;;;;;;;11.90;6.85;;;;;;;;;;5036679;28;20056;-82
2022/11/19 13:15:18;;;;;;;7.78;5.40;;;;;;;;;;5034755;28;20053;-82
2022/11/19 13:17:47;;;;;;;8.68;5.40;;;;;;;;;;5036881;28;20041;-82
2022/11/19 13:20:36;;;;;;;7.45;4.63;;;;;;;;;;5035695;28;20064;-83
2022/11/19 13:23:03;;;;;;;13.32;6.05;;;;;;;;;;5036619;28;20382;-82
2022/11/19 13:25:31;;;;;;;10.15;5.88;;;;;;;;;;5035595;28;20037;-82
2022/11/19 13:27:58;;;;;;;8.65;5.57;;;;;;;;;;5034353;28;20041;-82
2022/11/19 13:30:25;;;;;;;9.68;5.07;;;;;;;;;;5034574;28;20088;-82
2022/11/19 13:33:13;;;;;;;9.50;5.03;;;;;;;;;;5035398;28;20172;-82
2022/11/19 13:35:45;;;;;;;8.27;5.40;;;;;;;;;;5033953;28;20401;-82
2022/11/19 13:38:30;;;;;;;16.63;11.18;;;;;;;;;;5034382;28;20450;-82
2022/11/19 13:41:08;;;;;;;10.25;6.20;;;;;;;;;;5034717;28;20382;-82
2022/11/19 13:46:25;;;;;;;9.45;5.90;;;;;;;;;;5035853;28;20046;-82
2022/11/19 13:49:00;;;;;;;9.20;5.18;;;;;;;;;;4999081;28;20053;-82
2022/11/19 13:51:26;;;;;;;11.75;5.40;;;;;;;;;;5034656;28;20461;-82
2022/11/19 13:53:54;;;;;;;9.90;5.85;;;;;;;;;;5030410;28;20091;-82
2022/11/19 13:56:21;;;;;;;9.98;6.50;;;;;;;;;;5033321;28;20435;-81
2022/11/19 13:58:48;;;;;;;10.35;6.22;;;;;;;;;;5034555;28;20069;-82
2022/11/19 14:01:33;;;;;;;8.65;5.38;;;;;;;;;;5034211;28;20488;-81
2022/11/19 14:04:09;;;;;;;13.05;8.00;;;;;;;;;;5014820;28;20050;-82
2022/11/19 14:06:47;;;;;;;12.98;7.90;;;;;;;;;;5032244;28;20049;-82
2022/11/19 14:09:22;;;;;;;8.90;6.00;;;;;;;;;;5033369;28;20053;-81
2022/11/19 14:12:07;;;;;;;8.80;5.47;;;;;;;;;;5032060;28;20064;-82
2022/11/19 14:26:52;;;;;;;18.67;14.73;;;;;;;;;;5034095;28;20045;-82
2022/11/19 14:29:21;;;;;;;9.23;5.20;;;;;;;;;;4977599;28;20453;-82
2022/11/19 14:32:16;;;;;;;14.50;8.77;;;;;;;;;;4977298;28;20087;-82
2022/11/19 14:35:01;;;;;;;8.63;5.25;;;;;;;;;;4965545;28;20057;-82
2022/11/19 14:37:36;;;;;;;9.80;5.72;;;;;;;;;;4978199;28;20051;-82
2022/11/19 14:40:08;;;;;;;9.85;5.97;;;;;;;;;;4959783;28;20055;-82
2022/11/19 14:44:07;;;;;;;8.95;5.45;;;;;;;;;;4971861;28;20113;-82
2022/11/19 14:45:23;;;;;;;8.48;5.55;;;;;;;;;;4955181;28;20047;-82
2022/11/19 14:47:49;;;;;;;9.43;6.15;;;;;;;;;;4981604;28;20054;-82
2022/11/19 14:50:25;;;;;;;10.27;6.38;;;;;;;;;;4986089;28;20053;-82
2022/11/19 14:52:55;;;;;;;8.70;5.50;;;;;;;;;;4973170;28;20054;-81
2022/11/19 14:55:26;;;;;;;10.20;6.05;;;;;;;;;;4973409;28;20387;-81
2022/11/19 14:57:58;;;;;;;9.73;6.28;;;;;;;;;;4963136;28;20060;-82
2022/11/19 15:00:29;;;;;;;9.70;6.07;;;;;;;;;;4974967;28;20054;-81
2022/11/19 15:02:56;;;;;;;9.63;6.45;;;;;;;;;;4956704;28;20518;-82
2022/11/19 15:05:25;;;;;;;10.20;6.53;;;;;;;;;;5016105;28;20057;-82
2022/11/19 15:08:11;;;;;;;11.48;6.80;;;;;;;;;;5031512;28;20512;-81
2022/11/19 15:10:46;;;;;;;10.25;6.35;;;;;;;;;;5024209;28;20041;-81
2022/11/19 15:13:21;;;;;;;10.82;7.15;;;;;;;;;;5027035;28;20038;-82
2022/11/19 15:15:48;;;;;;;11.15;6.70;;;;;;;;;;5026880;28;20513;-81
2022/11/19 15:18:20;;;;;;;10.57;6.55;;;;;;;;;;5029748;28;20115;-82
2022/11/19 15:20:46;;;;;;;9.02;5.85;;;;;;;;;;5023052;28;20491;-82
2022/11/19 15:23:12;;;;;;;12.50;6.20;;;;;;;;;;5032854;28;20497;-82